createdAt,value
2018-02-24T00:01:28.581Z,-1.06
2018-02-24T00:03:56.274Z,-1.06
2018-02-24T00:06:23.918Z,-1.07
2018-02-24T00:08:51.917Z,-1.07
2018-02-24T00:11:20.057Z,-1.10
2018-02-24T00:13:48.048Z,-1.13
2018-02-24T00:16:16.113Z,-1.18
2018-02-24T00:18:44.150Z,-1.22
2018-02-24T00:21:11.806Z,-1.23
2018-02-24T00:23:39.469Z,-1.20
2018-02-24T00:26:07.124Z,-1.22
2018-02-24T00:28:34.814Z,-1.28
2018-02-24T00:31:02.406Z,-1.23
2018-02-24T00:33:30.016Z,-1.31
2018-02-24T00:35:57.653Z,-1.35
2018-02-24T00:38:25.324Z,-1.27
2018-02-24T00:40:53.020Z,-1.28
2018-02-24T00:43:20.632Z,-1.32
2018-02-24T00:45:48.313Z,-1.36
2018-02-24T00:48:16.037Z,-1.33
2018-02-24T00:50:43.897Z,-1.36
2018-02-24T00:53:11.544Z,-1.34
2018-02-24T00:55:39.285Z,-1.33
2018-02-24T00:58:06.946Z,-1.35
2018-02-24T01:00:34.809Z,-1.39
2018-02-24T01:03:02.414Z,-1.38
2018-02-24T01:05:30.861Z,-1.40
2018-02-24T01:07:58.466Z,-1.39
2018-02-24T01:10:26.132Z,-1.41
2018-02-24T01:12:53.812Z,-1.41
2018-02-24T01:15:21.447Z,-1.43
2018-02-24T01:17:49.029Z,-1.46
2018-02-24T01:20:16.683Z,-1.51
2018-02-24T01:22:44.437Z,-1.51
2018-02-24T01:25:12.078Z,-1.51
2018-02-24T01:27:39.736Z,-1.55
2018-02-24T01:30:07.329Z,-1.56
2018-02-24T01:32:35.004Z,-1.55
2018-02-24T01:35:02.709Z,-1.58
2018-02-24T01:37:30.392Z,-1.60
2018-02-24T01:39:58.056Z,-1.57
2018-02-24T01:42:25.667Z,-1.58
2018-02-24T01:44:53.341Z,-1.67
2018-02-24T01:47:20.960Z,-1.62
2018-02-24T01:49:48.572Z,-1.57
2018-02-24T01:52:16.269Z,-1.59
2018-02-24T01:54:44.008Z,-1.61
2018-02-24T01:57:11.634Z,-1.61
2018-02-24T01:59:39.293Z,-1.63
2018-02-24T02:02:06.920Z,-1.64
2018-02-24T02:04:34.514Z,-1.67
2018-02-24T02:07:02.418Z,-1.72
2018-02-24T02:09:30.066Z,-1.70
2018-02-24T02:11:57.689Z,-1.73
2018-02-24T02:14:25.475Z,-1.74
2018-02-24T02:16:53.086Z,-1.80
2018-02-24T02:19:20.737Z,-1.78
2018-02-24T02:21:48.395Z,-1.79
2018-02-24T02:24:15.972Z,-1.76
2018-02-24T02:26:43.581Z,-1.74
2018-02-24T02:29:11.231Z,-1.80
2018-02-24T02:31:38.845Z,-1.82
2018-02-24T02:34:06.435Z,-1.85
2018-02-24T02:36:34.130Z,-1.82
2018-02-24T02:39:01.728Z,-1.92
2018-02-24T02:41:29.448Z,-1.89
2018-02-24T02:43:57.489Z,-1.90
2018-02-24T02:46:25.180Z,-1.88
2018-02-24T02:48:53.117Z,-1.90
2018-02-24T02:51:20.715Z,-1.91
2018-02-24T02:53:48.488Z,-1.94
2018-02-24T02:56:16.201Z,-1.97
2018-02-24T02:58:43.845Z,-1.93
2018-02-24T03:01:11.448Z,-1.96
2018-02-24T03:03:39.140Z,-2.04
2018-02-24T03:06:06.883Z,-2.03
2018-02-24T03:08:34.902Z,-2.02
2018-02-24T03:11:02.672Z,-2.03
2018-02-24T03:13:30.279Z,-2.01
2018-02-24T03:15:57.963Z,-2.03
2018-02-24T03:18:26.110Z,-2.03
2018-02-24T03:20:53.791Z,-2.04
2018-02-24T03:23:21.376Z,-2.03
2018-02-24T03:25:49.080Z,-2.00
2018-02-24T03:28:16.803Z,-2.00
2018-02-24T03:30:44.425Z,-2.04
2018-02-24T03:33:12.078Z,-2.03
2018-02-24T03:35:39.659Z,-2.05
2018-02-24T03:38:07.321Z,-2.05
2018-02-24T03:40:35.028Z,-2.09
2018-02-24T03:43:02.691Z,-2.15
2018-02-24T03:45:30.442Z,-2.17
2018-02-24T03:47:58.081Z,-2.17
2018-02-24T03:50:25.781Z,-2.16
2018-02-24T03:52:53.437Z,-2.18
2018-02-24T03:55:21.124Z,-2.18
2018-02-24T03:57:49.063Z,-2.22
2018-02-24T04:00:17.002Z,-2.20
2018-02-24T04:02:44.578Z,-2.21
2018-02-24T04:05:12.178Z,-2.23
2018-02-24T04:07:39.844Z,-2.25
2018-02-24T04:10:07.672Z,-2.25
2018-02-24T04:12:35.253Z,-2.21
2018-02-24T04:15:02.911Z,-2.19
2018-02-24T04:17:30.771Z,-2.21
2018-02-24T04:19:58.370Z,-2.27
2018-02-24T04:22:25.992Z,-2.29
2018-02-24T04:24:53.606Z,-2.26
2018-02-24T04:27:21.490Z,-2.33
2018-02-24T04:29:49.072Z,-2.33
2018-02-24T04:32:16.706Z,-2.29
2018-02-24T04:34:44.344Z,-2.28
2018-02-24T04:37:11.928Z,-2.33
2018-02-24T04:39:39.526Z,-2.34
2018-02-24T04:42:07.111Z,-2.35
2018-02-24T04:44:34.711Z,-2.39
2018-02-24T04:47:02.353Z,-2.39
2018-02-24T04:49:29.950Z,-2.39
2018-02-24T04:51:57.845Z,-2.39
2018-02-24T04:54:25.697Z,-2.40
2018-02-24T04:56:53.323Z,-2.40
2018-02-24T04:59:20.918Z,-2.39
2018-02-24T05:01:48.559Z,-2.45
2018-02-24T05:04:16.180Z,-2.46
2018-02-24T05:06:43.791Z,-2.46
2018-02-24T05:09:11.413Z,-2.49
2018-02-24T05:11:38.974Z,-2.46
2018-02-24T05:14:06.610Z,-2.48
2018-02-24T05:16:34.210Z,-2.50
2018-02-24T05:19:02.138Z,-2.48
2018-02-24T05:21:29.745Z,-2.50
2018-02-24T05:23:57.382Z,-2.49
2018-02-24T05:26:25.008Z,-2.50
2018-02-24T05:28:52.800Z,-2.49
2018-02-24T05:31:20.383Z,-2.50
2018-02-24T05:33:48.023Z,-2.50
2018-02-24T05:36:15.872Z,-2.50
2018-02-24T05:38:43.534Z,-2.52
2018-02-24T05:41:11.163Z,-2.52
2018-02-24T05:43:38.777Z,-2.50
2018-02-24T05:46:06.368Z,-2.56
2018-02-24T05:48:34.104Z,-2.56
2018-02-24T05:51:02.045Z,-2.56
2018-02-24T05:53:29.650Z,-2.57
2018-02-24T05:55:57.540Z,-2.54
2018-02-24T05:58:25.149Z,-2.55
2018-02-24T06:00:52.741Z,-2.49
2018-02-24T06:03:20.380Z,-2.51
2018-02-24T06:05:47.940Z,-2.54
2018-02-24T06:08:15.565Z,-2.57
2018-02-24T06:10:43.302Z,-2.59
2018-02-24T06:13:10.926Z,-2.62
2018-02-24T06:15:38.503Z,-2.65
2018-02-24T06:18:06.125Z,-2.63
2018-02-24T06:20:33.723Z,-2.60
2018-02-24T06:23:01.659Z,-2.59
2018-02-24T06:25:29.316Z,-2.62
2018-02-24T06:27:56.944Z,-2.66
2018-02-24T06:30:24.843Z,-2.66
2018-02-24T06:32:52.487Z,-2.67
2018-02-24T06:35:20.052Z,-2.61
2018-02-24T06:37:47.668Z,-2.63
2018-02-24T06:40:15.311Z,-2.67
2018-02-24T06:42:43.165Z,-2.66
2018-02-24T06:45:10.847Z,-2.63
2018-02-24T06:47:38.552Z,-2.65
2018-02-24T06:50:06.137Z,-2.65
2018-02-24T06:52:34.001Z,-2.67
2018-02-24T06:55:01.641Z,-2.68
2018-02-24T06:57:29.344Z,-2.69
2018-02-24T06:59:56.995Z,-2.67
2018-02-24T07:02:24.850Z,-2.60
2018-02-24T07:04:52.588Z,-2.63
2018-02-24T07:07:20.256Z,-2.59
2018-02-24T07:09:47.848Z,-2.54
2018-02-24T07:12:15.444Z,-2.49
2018-02-24T07:14:45.164Z,-2.44
2018-02-24T07:17:12.998Z,-2.47
2018-02-24T07:19:40.612Z,-2.46
2018-02-24T07:22:08.246Z,-2.46
2018-02-24T07:24:36.186Z,-2.43
2018-02-24T07:27:04.054Z,-2.34
2018-02-24T07:29:31.733Z,-2.32
2018-02-24T07:31:59.360Z,-2.26
2018-02-24T07:34:26.963Z,-2.19
2018-02-24T07:36:54.580Z,-2.13
2018-02-24T07:39:22.419Z,-2.09
2018-02-24T07:41:50.003Z,-2.05
2018-02-24T07:44:17.611Z,-2.03
2018-02-24T07:46:45.247Z,-1.96
2018-02-24T07:49:12.931Z,-1.94
2018-02-24T07:51:40.562Z,-1.93
2018-02-24T07:54:08.210Z,-1.86
2018-02-24T07:56:35.837Z,-1.81
2018-02-24T07:59:03.515Z,-1.72
2018-02-24T08:01:31.120Z,-1.69
2018-02-24T08:03:58.707Z,-1.58
2018-02-24T08:06:26.335Z,-1.54
2018-02-24T08:08:53.942Z,-1.47
2018-02-24T08:11:21.591Z,-1.35
2018-02-24T08:13:49.215Z,-1.29
2018-02-24T08:16:17.156Z,-1.20
2018-02-24T08:18:45.076Z,-1.15
2018-02-24T08:21:12.710Z,-1.03
2018-02-24T08:23:40.327Z,-0.98
2018-02-24T08:26:08.024Z,-0.88
2018-02-24T08:28:35.606Z,-0.78
2018-02-24T08:31:03.246Z,-0.72
2018-02-24T08:33:30.852Z,-0.60
2018-02-24T08:35:58.679Z,-0.54
2018-02-24T08:38:26.287Z,-0.49
2018-02-24T08:40:53.951Z,-0.34
2018-02-24T08:43:21.803Z,-0.27
2018-02-24T08:45:49.654Z,-0.17
2018-02-24T08:48:17.421Z,-0.08
2018-02-24T08:50:45.010Z,0.09
2018-02-24T08:53:12.581Z,0.19
2018-02-24T08:55:40.231Z,0.23
2018-02-24T08:58:08.036Z,0.24
2018-02-24T09:00:35.683Z,0.38
2018-02-24T09:03:03.323Z,0.39
2018-02-24T09:05:31.187Z,0.43
2018-02-24T09:07:59.134Z,0.48
2018-02-24T09:10:26.749Z,0.54
2018-02-24T09:12:54.589Z,0.57
2018-02-24T09:15:22.238Z,0.61
2018-02-24T09:17:49.811Z,0.61
2018-02-24T09:20:17.462Z,0.67
2018-02-24T09:22:45.088Z,0.72
2018-02-24T09:25:12.676Z,0.79
2018-02-24T09:27:40.398Z,0.86
2018-02-24T09:30:08.324Z,0.96
2018-02-24T09:32:35.941Z,1.03
2018-02-24T09:35:03.675Z,1.13
2018-02-24T09:37:31.406Z,1.21
2018-02-24T09:39:59.055Z,1.33
2018-02-24T09:42:26.914Z,1.29
2018-02-24T09:44:54.782Z,1.37
2018-02-24T09:47:22.465Z,1.40
2018-02-24T09:49:50.098Z,1.48
2018-02-24T09:52:17.734Z,1.53
2018-02-24T09:54:45.638Z,1.61
2018-02-24T09:57:13.266Z,1.69
2018-02-24T09:59:40.861Z,1.71
2018-02-24T10:02:08.504Z,1.79
2018-02-24T10:04:36.111Z,1.90
2018-02-24T10:07:03.709Z,1.88
2018-02-24T10:09:57.258Z,1.94
2018-02-24T10:12:24.864Z,2.02
2018-02-24T10:14:52.479Z,2.05
2018-02-24T10:17:20.132Z,2.05
2018-02-24T10:19:47.714Z,2.01
2018-02-24T10:22:15.312Z,2.08
2018-02-24T10:24:42.978Z,2.03
2018-02-24T10:27:10.563Z,2.08
2018-02-24T10:29:38.212Z,2.12
2018-02-24T10:32:05.814Z,2.14
2018-02-24T10:34:33.403Z,2.17
2018-02-24T10:37:01.024Z,2.15
2018-02-24T10:39:28.756Z,2.32
2018-02-24T10:41:56.410Z,2.27
2018-02-24T10:44:24.088Z,2.28
2018-02-24T10:46:51.679Z,2.30
2018-02-24T10:49:19.316Z,2.32
2018-02-24T10:51:46.952Z,2.34
2018-02-24T10:54:14.606Z,2.39
2018-02-24T10:56:42.285Z,2.45
2018-02-24T10:59:09.876Z,2.45
2018-02-24T11:01:37.496Z,2.52
2018-02-24T11:04:11.674Z,2.60
2018-02-24T11:06:39.598Z,2.70
2018-02-24T11:09:07.659Z,2.66
2018-02-24T11:11:35.305Z,2.63
2018-02-24T11:14:02.941Z,2.69
2018-02-24T11:16:30.644Z,2.76
2018-02-24T11:18:58.246Z,2.86
2018-02-24T11:21:25.862Z,2.97
2018-02-24T11:23:53.563Z,3.06
2018-02-24T11:26:21.188Z,3.17
2018-02-24T11:28:49.069Z,3.11
2018-02-24T11:31:17.054Z,3.07
2018-02-24T11:33:44.706Z,3.22
2018-02-24T11:36:12.605Z,3.26
2018-02-24T11:38:40.306Z,3.39
2018-02-24T11:41:08.308Z,3.62
2018-02-24T11:43:36.083Z,3.79
2018-02-24T11:46:03.753Z,3.69
2018-02-24T11:48:31.382Z,3.68
2018-02-24T11:50:59.134Z,3.76
2018-02-24T11:53:27.016Z,3.90
2018-02-24T11:55:54.883Z,3.96
2018-02-24T11:58:22.564Z,3.96
2018-02-24T12:00:50.201Z,4.11
2018-02-24T12:03:17.760Z,4.06
2018-02-24T12:05:45.632Z,3.99
2018-02-24T12:08:13.303Z,4.09
2018-02-24T12:10:40.979Z,4.19
2018-02-24T12:13:08.555Z,4.10
2018-02-24T12:15:36.212Z,4.11
2018-02-24T12:18:03.827Z,4.23
2018-02-24T12:20:31.437Z,4.36
2018-02-24T12:22:59.092Z,4.42
2018-02-24T12:25:37.732Z,4.49
2018-02-24T12:28:05.371Z,4.54
2018-02-24T12:30:32.997Z,4.67
2018-02-24T12:33:00.609Z,4.87
2018-02-24T12:35:28.388Z,4.97
2018-02-24T12:37:56.331Z,4.81
2018-02-24T12:40:24.015Z,4.66
2018-02-24T12:42:51.954Z,4.56
2018-02-24T12:45:19.595Z,4.33
2018-02-24T12:47:47.220Z,4.25
2018-02-24T12:50:14.892Z,4.07
2018-02-24T12:52:42.515Z,3.99
2018-02-24T12:55:10.137Z,3.88
2018-02-24T12:57:37.769Z,3.84
2018-02-24T13:00:05.432Z,3.62
2018-02-24T13:02:33.365Z,3.65
2018-02-24T13:05:06.586Z,3.61
2018-02-24T13:07:34.297Z,3.56
2018-02-24T13:10:02.008Z,3.63
2018-02-24T13:12:29.635Z,3.64
2018-02-24T13:14:57.251Z,3.66
2018-02-24T13:17:24.914Z,3.75
2018-02-24T13:19:52.648Z,3.85
2018-02-24T13:22:20.283Z,3.95
2018-02-24T13:24:47.953Z,4.03
2018-02-24T13:27:15.612Z,4.04
2018-02-24T13:29:43.264Z,4.05
2018-02-24T13:32:11.248Z,3.93
2018-02-24T13:34:38.899Z,3.84
2018-02-24T13:37:06.604Z,3.69
2018-02-24T13:39:34.242Z,3.61
2018-02-24T13:42:01.894Z,3.66
2018-02-24T13:44:29.560Z,3.76
2018-02-24T13:46:57.624Z,3.77
2018-02-24T13:49:25.266Z,3.87
2018-02-24T13:51:52.956Z,3.89
2018-02-24T13:54:20.612Z,3.92
2018-02-24T13:56:48.232Z,3.87
2018-02-24T13:59:16.222Z,3.73
2018-02-24T14:01:43.843Z,3.65
2018-02-24T14:04:11.478Z,3.56
2018-02-24T14:06:39.170Z,3.33
2018-02-24T14:09:06.787Z,3.12
2018-02-24T14:11:34.411Z,3.14
2018-02-24T14:14:02.104Z,3.13
2018-02-24T14:16:30.081Z,3.04
2018-02-24T14:18:58.054Z,3.10
2018-02-24T14:21:25.783Z,3.21
2018-02-24T14:23:53.681Z,3.32
2018-02-24T14:26:21.289Z,3.46
2018-02-24T14:28:48.974Z,3.61
2018-02-24T14:31:16.649Z,3.73
2018-02-24T14:33:44.293Z,3.80
2018-02-24T14:36:11.953Z,3.91
2018-02-24T14:38:39.543Z,3.87
2018-02-24T14:41:07.170Z,3.85
2018-02-24T14:43:34.845Z,3.90
2018-02-24T14:46:02.510Z,3.91
2018-02-24T14:48:30.100Z,3.98
2018-02-24T14:50:57.771Z,3.98
2018-02-24T14:53:25.439Z,4.02
2018-02-24T14:55:53.382Z,4.02
2018-02-24T14:58:21.010Z,4.04
2018-02-24T15:00:48.675Z,3.95
2018-02-24T15:03:16.322Z,3.93
2018-02-24T15:05:43.949Z,3.91
2018-02-24T15:08:11.653Z,3.83
2018-02-24T15:10:39.333Z,3.71
2018-02-24T15:13:07.069Z,3.68
2018-02-24T15:15:34.941Z,3.65
2018-02-24T15:18:03.077Z,3.64
2018-02-24T15:20:30.803Z,3.56
2018-02-24T15:22:58.411Z,3.43
2018-02-24T15:25:26.079Z,3.36
2018-02-24T15:27:53.820Z,3.29
2018-02-24T15:30:21.450Z,3.27
2018-02-24T15:32:49.570Z,3.16
2018-02-24T15:35:17.319Z,3.21
2018-02-24T15:37:45.061Z,3.11
2018-02-24T15:40:12.725Z,3.07
2018-02-24T15:42:40.390Z,3.05
2018-02-24T15:45:08.049Z,3.06
2018-02-24T15:47:35.676Z,3.04
2018-02-24T15:50:03.343Z,3.07
2018-02-24T15:52:31.072Z,2.99
2018-02-24T15:54:58.718Z,2.93
2018-02-24T15:57:26.796Z,2.91
2018-02-24T15:59:54.514Z,2.89
2018-02-24T16:02:22.183Z,2.88
2018-02-24T16:04:49.990Z,2.84
2018-02-24T16:07:17.621Z,2.86
2018-02-24T16:09:45.373Z,2.75
2018-02-24T16:12:13.130Z,2.79
2018-02-24T16:14:40.774Z,2.72
2018-02-24T16:17:08.420Z,2.71
2018-02-24T16:19:36.092Z,2.75
2018-02-24T16:22:04.001Z,2.67
2018-02-24T16:24:31.688Z,2.62
2018-02-24T16:26:59.335Z,2.61
2018-02-24T16:29:27.234Z,2.63
2018-02-24T16:31:54.927Z,2.58
2018-02-24T16:34:22.553Z,2.60
2018-02-24T16:36:50.167Z,2.50
2018-02-24T16:39:18.187Z,2.51
2018-02-24T16:41:45.865Z,2.48
2018-02-24T16:44:13.506Z,2.41
2018-02-24T16:46:41.194Z,2.38
2018-02-24T16:49:08.870Z,2.33
2018-02-24T16:51:36.523Z,2.31
2018-02-24T16:54:04.227Z,2.31
2018-02-24T16:56:31.883Z,2.22
2018-02-24T16:58:59.519Z,2.18
2018-02-24T17:01:27.223Z,2.08
2018-02-24T17:03:54.880Z,2.10
2018-02-24T17:06:22.506Z,2.05
2018-02-24T17:08:50.199Z,2.04
2018-02-24T17:11:17.830Z,2.00
2018-02-24T17:13:45.514Z,1.96
2018-02-24T17:16:13.384Z,1.94
2018-02-24T17:18:41.113Z,1.90
2018-02-24T17:21:08.739Z,1.82
2018-02-24T17:23:36.435Z,1.76
2018-02-24T17:26:04.495Z,1.67
2018-02-24T17:28:32.108Z,1.69
2018-02-24T17:30:59.790Z,1.66
2018-02-24T17:33:27.463Z,1.62
2018-02-24T17:35:55.083Z,1.65
2018-02-24T17:38:22.808Z,1.54
2018-02-24T17:40:50.462Z,1.53
2018-02-24T17:43:18.092Z,1.49
2018-02-24T17:45:45.781Z,1.45
2018-02-24T17:48:13.859Z,1.38
2018-02-24T17:50:41.495Z,1.40
2018-02-24T17:53:09.252Z,1.34
2018-02-24T17:55:36.930Z,1.32
2018-02-24T17:58:04.578Z,1.30
2018-02-24T18:00:32.197Z,1.27
2018-02-24T18:02:59.889Z,1.21
2018-02-24T18:05:27.487Z,1.22
2018-02-24T18:07:55.102Z,1.22
2018-02-24T18:10:22.721Z,1.19
2018-02-24T18:12:50.387Z,1.19
2018-02-24T18:15:38.314Z,1.14
2018-02-24T18:18:06.383Z,1.10
2018-02-24T18:20:34.609Z,1.07
2018-02-24T18:23:02.765Z,1.05
2018-02-24T18:25:30.874Z,1.07
2018-02-24T18:27:58.503Z,0.96
2018-02-24T18:30:26.237Z,1.01
2018-02-24T18:32:53.888Z,0.96
2018-02-24T18:35:21.559Z,0.98
2018-02-24T18:37:49.266Z,0.96
2018-02-24T18:40:16.975Z,0.92
2018-02-24T18:42:44.598Z,0.88
2018-02-24T18:45:12.280Z,0.81
2018-02-24T18:47:39.874Z,0.83
2018-02-24T18:50:07.530Z,0.78
2018-02-24T18:52:35.169Z,0.80
2018-02-24T18:55:02.856Z,0.67
2018-02-24T18:57:30.507Z,0.69
2018-02-24T18:59:58.118Z,0.68
2018-02-24T19:02:29.609Z,0.60
2018-02-24T19:04:57.284Z,0.61
2018-02-24T19:07:25.112Z,0.61
2018-02-24T19:09:52.753Z,0.59
2018-02-24T19:12:20.586Z,0.59
2018-02-24T19:14:48.514Z,0.53
2018-02-24T19:17:16.187Z,0.57
2018-02-24T19:19:43.809Z,0.53
2018-02-24T19:22:11.439Z,0.49
2018-02-24T19:24:39.099Z,0.45
2018-02-24T19:27:06.900Z,0.45
2018-02-24T19:29:35.808Z,0.44
2018-02-24T19:32:03.451Z,0.39
2018-02-24T19:34:31.044Z,0.36
2018-02-24T19:36:58.950Z,0.37
2018-02-24T19:39:26.548Z,0.38
2018-02-24T19:41:54.172Z,0.36
2018-02-24T19:44:21.834Z,0.34
2018-02-24T19:46:49.664Z,0.35
2018-02-24T19:49:17.240Z,0.32
2018-02-24T19:51:44.930Z,0.30
2018-02-24T19:54:12.549Z,0.34
2018-02-24T19:56:40.176Z,0.25
2018-02-24T19:59:07.827Z,0.19
2018-02-24T20:01:35.469Z,0.16
2018-02-24T20:04:03.046Z,0.18
2018-02-24T20:06:30.678Z,0.10
2018-02-24T20:08:58.267Z,0.12
2018-02-24T20:11:25.972Z,0.10
2018-02-24T20:13:53.549Z,0.09
2018-02-24T20:16:21.166Z,0.04
2018-02-24T20:18:48.797Z,0.07
2018-02-24T20:21:16.418Z,0.00
2018-02-24T20:23:43.989Z,0.01
2018-02-24T20:26:11.592Z,-0.01
2018-02-24T20:28:39.273Z,-0.09
2018-02-24T20:31:07.105Z,-0.07
2018-02-24T20:33:36.562Z,-0.10
2018-02-24T20:36:04.213Z,-0.16
2018-02-24T20:38:31.855Z,-0.13
2018-02-24T20:40:59.517Z,-0.11
2018-02-24T20:43:27.157Z,-0.14
2018-02-24T20:45:54.801Z,-0.15
2018-02-24T20:48:22.456Z,-0.15
2018-02-24T20:50:50.055Z,-0.17
2018-02-24T20:53:17.927Z,-0.21
2018-02-24T20:55:45.598Z,-0.26
2018-02-24T20:58:13.216Z,-0.25
2018-02-24T21:00:41.986Z,-0.24
2018-02-24T21:03:09.995Z,-0.26
2018-02-24T21:05:37.581Z,-0.27
2018-02-24T21:08:05.238Z,-0.34
2018-02-24T21:10:32.897Z,-0.34
2018-02-24T21:13:01.577Z,-0.23
2018-02-24T21:15:36.169Z,-0.27
2018-02-24T21:18:03.767Z,-0.28
2018-02-24T21:20:31.363Z,-0.34
2018-02-24T21:22:58.987Z,-0.41
2018-02-24T21:25:26.960Z,-0.41
2018-02-24T21:27:55.115Z,-0.38
2018-02-24T21:30:22.720Z,-0.37
2018-02-24T21:32:50.358Z,-0.37
2018-02-24T21:35:18.016Z,-0.45
2018-02-24T21:37:45.628Z,-0.43
2018-02-24T21:40:13.238Z,-0.41
2018-02-24T21:42:40.918Z,-0.47
2018-02-24T21:45:08.589Z,-0.48
2018-02-24T21:47:36.219Z,-0.48
2018-02-24T21:50:03.851Z,-0.49
2018-02-24T21:52:31.494Z,-0.49
2018-02-24T21:54:59.103Z,-0.55
2018-02-24T21:57:26.797Z,-0.55
2018-02-24T21:59:54.394Z,-0.56
2018-02-24T22:02:22.093Z,-0.59
2018-02-24T22:04:49.760Z,-0.62
2018-02-24T22:07:17.377Z,-0.64
2018-02-24T22:09:45.260Z,-0.66
2018-02-24T22:12:12.859Z,-0.67
2018-02-24T22:14:40.427Z,-0.72
2018-02-24T22:17:08.031Z,-0.76
2018-02-24T22:19:35.667Z,-0.76
2018-02-24T22:22:03.263Z,-0.73
2018-02-24T22:24:30.881Z,-0.76
2018-02-24T22:26:58.514Z,-0.75
2018-02-24T22:29:26.108Z,-0.78
2018-02-24T22:31:53.716Z,-0.86
2018-02-24T22:34:21.343Z,-0.85
2018-02-24T22:36:48.934Z,-0.82
2018-02-24T22:39:16.554Z,-0.86
2018-02-24T22:41:44.209Z,-0.86
2018-02-24T22:44:11.804Z,-0.91
2018-02-24T22:46:39.428Z,-0.92
2018-02-24T22:49:07.039Z,-0.97
2018-02-24T22:51:34.611Z,-1.00
2018-02-24T22:54:02.227Z,-1.00
2018-02-24T22:56:29.930Z,-0.96
2018-02-24T22:58:57.625Z,-1.04
2018-02-24T23:01:25.578Z,-1.12
2018-02-24T23:03:53.155Z,-1.15
2018-02-24T23:06:20.795Z,-1.11
2018-02-24T23:08:48.386Z,-1.11
2018-02-24T23:11:15.994Z,-1.15
2018-02-24T23:13:43.656Z,-1.18
2018-02-24T23:16:11.263Z,-1.21
2018-02-24T23:18:38.861Z,-1.18
2018-02-24T23:21:06.478Z,-1.19
2018-02-24T23:23:34.158Z,-1.22
2018-02-24T23:26:01.724Z,-1.25
2018-02-24T23:28:29.295Z,-1.31
2018-02-24T23:30:56.989Z,-1.33
2018-02-24T23:33:24.586Z,-1.34
2018-02-24T23:35:52.233Z,-1.35
2018-02-24T23:38:19.831Z,-1.33
2018-02-24T23:40:47.454Z,-1.39
2018-02-24T23:43:15.101Z,-1.43
2018-02-24T23:45:42.792Z,-1.43
2018-02-24T23:48:10.386Z,-1.44
2018-02-24T23:50:38.020Z,-1.45
2018-02-24T23:53:05.664Z,-1.42
2018-02-24T23:55:33.628Z,-1.39
2018-02-24T23:58:01.504Z,-1.44
